Time;durP1;ratioP1;P1;durP2;ratioP2;P2;SDS_P1;SDS_P2;PMS_P1;PMS_P2;Temp;Humidity;BMP_temperature;BMP_pressure;BME280_temperature;BME280_humidity;BME280_pressure;Samples;Min_cycle;Max_cycle;Signal;HPM_P1;HPM_P2
2021/01/03 00:00:50;;;;;;;;;;;11.50;76.70;;;;;;2094862;28;712;-52
2021/01/03 00:02:09;;;;;;;;;;;11.50;76.70;;;;;;2089370;28;734;-50
2021/01/03 00:03:28;;;;;;;;;;;11.50;76.70;;;;;;2086175;28;745;-50
2021/01/03 00:04:48;;;;;;;;;;;11.50;76.80;;;;;;2093915;28;1906;-50
2021/01/03 00:06:08;;;;;;;;;;;11.50;76.80;;;;;;2096148;28;1446;-50
2021/01/03 00:07:27;;;;;;;;;;;11.50;76.80;;;;;;2098267;28;947;-50
2021/01/03 00:08:46;;;;;;;;;;;11.50;76.80;;;;;;2098391;28;686;-50
2021/01/03 00:10:05;;;;;;;;;;;11.50;76.90;;;;;;2098159;28;792;-51
2021/01/03 00:11:25;;;;;;;;;;;11.50;77.60;;;;;;2098386;28;705;-53
2021/01/03 00:12:44;;;;;;;;;;;11.50;77.60;;;;;;2098337;28;721;-50
2021/01/03 00:14:04;;;;;;;;;;;11.50;76.90;;;;;;2098188;28;718;-52
2021/01/03 00:15:24;;;;;;;;;;;11.50;76.90;;;;;;2088217;28;753;-51
2021/01/03 00:16:46;;;;;;;;;;;11.50;76.90;;;;;;2102882;28;722;-52
2021/01/03 00:18:05;;;;;;;;;;;11.50;76.90;;;;;;2091911;28;734;-51
2021/01/03 00:19:25;;;;;;;;;;;11.50;77.00;;;;;;2088313;28;1059;-52
2021/01/03 00:20:44;;;;;;;;;;;11.50;77.00;;;;;;2095530;28;1039;-52
2021/01/03 00:22:03;;;;;;;;;;;11.50;77.00;;;;;;2086337;28;985;-51
2021/01/03 00:23:22;;;;;;;;;;;11.50;77.00;;;;;;2085979;28;763;-51
2021/01/03 00:24:41;;;;;;;;;;;11.50;77.10;;;;;;2102255;28;1906;-52
2021/01/03 00:26:00;;;;;;;;;;;11.50;77.00;;;;;;2101360;28;1367;-51
2021/01/03 00:27:20;;;;;;;;;;;11.50;77.10;;;;;;2089365;28;711;-52
2021/01/03 00:28:39;;;;;;;;;;;11.50;77.10;;;;;;2094516;28;770;-52
2021/01/03 00:29:58;;;;;;;;;;;11.40;77.00;;;;;;2089180;28;708;-51
2021/01/03 00:31:17;;;;;;;;;;;11.40;77.00;;;;;;2094630;28;800;-51
2021/01/03 00:32:37;;;;;;;;;;;11.40;77.00;;;;;;2097878;28;730;-52
2021/01/03 00:33:56;;;;;;;;;;;11.40;77.10;;;;;;2081211;28;724;-52
2021/01/03 00:35:17;;;;;;;;;;;11.40;77.10;;;;;;2090129;28;733;-52
2021/01/03 00:36:36;;;;;;;;;;;11.40;77.10;;;;;;2089179;28;790;-52
2021/01/03 00:38:02;;;;;;;;;;;11.40;77.20;;;;;;2094687;28;754;-52
2021/01/03 00:39:21;;;;;;;;;;;11.40;77.20;;;;;;2089279;28;793;-52
2021/01/03 00:40:41;;;;;;;;;;;11.40;77.20;;;;;;2094354;28;817;-51
2021/01/03 00:42:00;;;;;;;;;;;11.40;77.10;;;;;;2098019;28;732;-51
2021/01/03 00:43:19;;;;;;;;;;;11.40;77.30;;;;;;2098045;28;714;-51
2021/01/03 00:44:38;;;;;;;;;;;11.40;77.20;;;;;;2097797;28;1910;-52
2021/01/03 00:45:58;;;;;;;;;;;11.40;77.20;;;;;;2097923;28;1366;-51
2021/01/03 00:47:17;;;;;;;;;;;11.40;77.30;;;;;;2098058;28;785;-52
2021/01/03 00:48:36;;;;;;;;;;;11.40;77.30;;;;;;2098254;28;759;-51
2021/01/03 00:49:55;;;;;;;;;;;11.40;77.20;;;;;;2088114;28;1253;-52
2021/01/03 00:51:14;;;;;;;;;;;11.40;78.00;;;;;;2090946;28;1048;-51
2021/01/03 00:52:34;;;;;;;;;;;11.40;77.20;;;;;;2089281;28;807;-52
2021/01/03 00:53:53;;;;;;;;;;;11.40;77.30;;;;;;2094481;28;811;-52
2021/01/03 00:55:12;;;;;;;;;;;11.40;77.20;;;;;;2097326;28;768;-52
2021/01/03 00:56:32;;;;;;;;;;;11.30;77.20;;;;;;2088980;28;1368;-51
2021/01/03 00:57:51;;;;;;;;;;;11.40;77.40;;;;;;2094178;28;727;-52
2021/01/03 00:59:10;;;;;;;;;;;11.40;77.40;;;;;;2089160;28;765;-53
2021/01/03 01:00:30;;;;;;;;;;;11.30;77.30;;;;;;2094465;28;808;-52
2021/01/03 01:01:49;;;;;;;;;;;11.40;77.40;;;;;;2089144;28;792;-52
2021/01/03 01:03:09;;;;;;;;;;;11.30;77.40;;;;;;2094441;28;744;-52
2021/01/03 01:04:28;;;;;;;;;;;11.30;77.30;;;;;;2084641;28;1926;-51
2021/01/03 01:05:47;;;;;;;;;;;11.40;77.50;;;;;;2097588;28;1378;-52
2021/01/03 01:07:06;;;;;;;;;;;11.30;77.40;;;;;;2094536;28;1052;-51
2021/01/03 01:08:26;;;;;;;;;;;11.30;78.10;;;;;;2092518;28;778;-51
2021/01/03 01:09:44;;;;;;;;;;;11.30;77.40;;;;;;2091190;28;742;-50
2021/01/03 01:11:04;;;;;;;;;;;11.30;77.40;;;;;;2082453;28;848;-51
2021/01/03 01:12:23;;;;;;;;;;;11.30;77.40;;;;;;2091004;28;786;-50
2021/01/03 01:13:42;;;;;;;;;;;11.30;77.40;;;;;;2092715;28;759;-51
2021/01/03 01:15:05;;;;;;;;;;;11.30;77.40;;;;;;2097349;28;686;-51
2021/01/03 01:16:25;;;;;;;;;;;11.30;77.50;;;;;;2088787;28;1291;-50
2021/01/03 01:17:51;;;;;;;;;;;11.30;77.40;;;;;;2093989;28;763;-52
2021/01/03 01:19:10;;;;;;;;;;;11.30;77.50;;;;;;2093810;28;1013;-52
2021/01/03 01:20:30;;;;;;;;;;;11.30;77.40;;;;;;2089372;28;1061;-51
2021/01/03 01:21:49;;;;;;;;;;;11.30;77.40;;;;;;2085630;28;1039;-54
2021/01/03 01:23:08;;;;;;;;;;;11.30;77.40;;;;;;2080799;28;713;-54
2021/01/03 01:24:27;;;;;;;;;;;11.30;77.50;;;;;;2085757;28;1909;-54
2021/01/03 01:25:47;;;;;;;;;;;11.30;77.40;;;;;;2080886;28;1330;-53
2021/01/03 01:27:06;;;;;;;;;;;11.30;77.50;;;;;;2080143;28;761;-56
2021/01/03 01:28:25;;;;;;;;;;;11.30;77.50;;;;;;2088807;28;755;-52
2021/01/03 01:29:44;;;;;;;;;;;11.30;77.40;;;;;;2083585;28;740;-55
2021/01/03 01:31:03;;;;;;;;;;;11.30;77.50;;;;;;2088565;28;768;-52
2021/01/03 01:32:23;;;;;;;;;;;11.30;78.30;;;;;;2092224;28;792;-54
2021/01/03 01:33:42;;;;;;;;;;;11.30;78.30;;;;;;2083586;28;725;-51
2021/01/03 01:35:01;;;;;;;;;;;11.30;77.60;;;;;;2079304;28;870;-52
2021/01/03 01:36:20;;;;;;;;;;;11.30;77.60;;;;;;2088654;28;1338;-53
2021/01/03 01:37:39;;;;;;;;;;;11.30;77.60;;;;;;2083502;28;768;-53
2021/01/03 01:38:58;;;;;;;;;;;11.20;77.50;;;;;;2096664;28;723;-54
2021/01/03 01:40:18;;;;;;;;;;;11.30;77.70;;;;;;2086606;28;741;-51
2021/01/03 01:41:37;;;;;;;;;;;11.20;77.50;;;;;;2088893;28;776;-52
2021/01/03 01:42:56;;;;;;;;;;;11.20;77.50;;;;;;2092047;28;745;-55
2021/01/03 01:44:15;;;;;;;;;;;11.20;77.50;;;;;;2092301;28;1898;-51
2021/01/03 01:45:36;;;;;;;;;;;11.20;77.50;;;;;;2091718;28;725;-55
2021/01/03 01:47:06;;;;;;;;;;;11.20;77.50;;;;;;2083484;28;817;-55
2021/01/03 01:48:25;;;;;;;;;;;11.20;77.60;;;;;;2090150;28;753;-52
2021/01/03 01:49:44;;;;;;;;;;;11.20;77.70;;;;;;2080347;28;957;-51
2021/01/03 01:51:05;;;;;;;;;;;11.20;77.60;;;;;;2099294;28;1135;-53
2021/01/03 01:52:24;;;;;;;;;;;11.20;77.60;;;;;;2103316;28;1242;-51
2021/01/03 01:53:46;;;;;;;;;;;11.20;77.60;;;;;;2082219;28;741;-51
2021/01/03 01:55:06;;;;;;;;;;;11.20;77.60;;;;;;2096126;28;823;-54
2021/01/03 01:56:28;;;;;;;;;;;11.20;77.70;;;;;;2094668;28;1349;-53
2021/01/03 01:57:50;;;;;;;;;;;11.20;77.70;;;;;;2097068;28;728;-51
2021/01/03 01:59:12;;;;;;;;;;;11.20;77.60;;;;;;2099992;28;716;-53
2021/01/03 02:00:31;;;;;;;;;;;11.20;77.70;;;;;;2091541;28;719;-57
2021/01/03 02:01:53;;;;;;;;;;;11.20;77.70;;;;;;2104875;28;1069;-56
2021/01/03 02:03:27;;;;;;;;;;;11.20;77.80;;;;;;2082700;28;1527;-55
2021/01/03 02:04:51;;;;;;;;;;;11.20;77.70;;;;;;2104402;28;1977;-52
2021/01/03 02:06:14;;;;;;;;;;;11.20;77.70;;;;;;2094256;28;1369;-52
2021/01/03 02:07:39;;;;;;;;;;;11.20;77.80;;;;;;2105591;28;757;-51
2021/01/03 02:09:02;;;;;;;;;;;11.20;77.80;;;;;;2094480;28;774;-51
2021/01/03 02:10:23;;;;;;;;;;;11.20;77.80;;;;;;2105391;28;925;-53
2021/01/03 02:11:42;;;;;;;;;;;11.20;77.80;;;;;;2094581;28;775;-50
2021/01/03 02:13:02;;;;;;;;;;;11.20;78.50;;;;;;2096571;28;730;-53
2021/01/03 02:14:21;;;;;;;;;;;11.20;78.50;;;;;;2094810;28;763;-52
2021/01/03 02:15:41;;;;;;;;;;;11.20;77.80;;;;;;2096593;28;1353;-52
2021/01/03 02:17:00;;;;;;;;;;;11.20;77.80;;;;;;2091512;28;731;-55
2021/01/03 02:18:19;;;;;;;;;;;11.20;77.90;;;;;;2104996;28;727;-52
2021/01/03 02:19:38;;;;;;;;;;;11.20;78.00;;;;;;2097187;28;1049;-52
2021/01/03 02:20:58;;;;;;;;;;;11.10;77.80;;;;;;2086841;28;1162;-53
2021/01/03 02:22:23;;;;;;;;;;;11.10;77.80;;;;;;2103705;28;1206;-55
2021/01/03 02:23:44;;;;;;;;;;;11.10;77.80;;;;;;2094191;28;755;-51
2021/01/03 02:25:07;;;;;;;;;;;11.10;78.60;;;;;;2096565;28;1965;-55
2021/01/03 02:26:27;;;;;;;;;;;11.10;77.80;;;;;;2100320;28;1376;-51
2021/01/03 02:27:54;;;;;;;;;;;11.10;77.70;;;;;;2091290;28;749;-55
2021/01/03 02:29:13;;;;;;;;;;;11.10;77.80;;;;;;2105882;28;933;-51
2021/01/03 02:30:32;;;;;;;;;;;11.10;77.80;;;;;;2094526;28;737;-54
2021/01/03 02:31:52;;;;;;;;;;;11.10;77.80;;;;;;2088373;28;733;-52
2021/01/03 02:33:30;;;;;;;;;;;11.10;77.80;;;;;;2096282;28;727;-55
2021/01/03 02:34:49;;;;;;;;;;;11.10;77.80;;;;;;2099168;28;698;-51
2021/01/03 02:36:29;;;;;;;;;;;11.10;77.80;;;;;;2091544;28;1373;-54
2021/01/03 02:37:48;;;;;;;;;;;11.10;77.80;;;;;;2089318;28;740;-53
2021/01/03 02:39:07;;;;;;;;;;;11.10;77.90;;;;;;2095292;28;723;-53
2021/01/03 02:40:26;;;;;;;;;;;11.10;77.80;;;;;;2098995;28;726;-51
2021/01/03 02:41:46;;;;;;;;;;;11.10;77.80;;;;;;2099061;28;787;-51
2021/01/03 02:43:05;;;;;;;;;;;11.10;77.80;;;;;;2098835;28;782;-52
2021/01/03 02:44:24;;;;;;;;;;;11.10;77.80;;;;;;2098768;28;1964;-54
2021/01/03 02:45:43;;;;;;;;;;;11.10;77.90;;;;;;2086241;28;1503;-52
2021/01/03 02:47:02;;;;;;;;;;;11.10;78.00;;;;;;2095426;28;752;-53
2021/01/03 02:48:22;;;;;;;;;;;11.10;78.00;;;;;;2099177;28;737;-54
2021/01/03 02:49:41;;;;;;;;;;;11.10;78.00;;;;;;2078294;28;1169;-55
2021/01/03 02:51:01;;;;;;;;;;;11.10;77.90;;;;;;2090224;28;983;-51
2021/01/03 02:52:25;;;;;;;;;;;11.10;78.60;;;;;;2098370;28;1020;-50
2021/01/03 02:53:44;;;;;;;;;;;11.10;77.90;;;;;;2088479;28;806;-55
2021/01/03 02:55:04;;;;;;;;;;;11.10;78.00;;;;;;2094704;28;700;-54
2021/01/03 02:56:24;;;;;;;;;;;11.00;77.90;;;;;;2098752;28;1440;-53
2021/01/03 02:57:43;;;;;;;;;;;11.10;78.00;;;;;;2089914;28;737;-51
2021/01/03 02:59:02;;;;;;;;;;;11.10;78.00;;;;;;2103322;28;715;-51
2021/01/03 03:00:25;;;;;;;;;;;11.00;77.80;;;;;;2093249;28;774;-53
2021/01/03 03:01:44;;;;;;;;;;;11.10;78.00;;;;;;2095681;28;821;-52
2021/01/03 03:03:04;;;;;;;;;;;11.00;77.90;;;;;;2090007;28;750;-51
2021/01/03 03:04:23;;;;;;;;;;;11.00;77.90;;;;;;2095251;28;1968;-52
2021/01/03 03:05:43;;;;;;;;;;;11.00;77.90;;;;;;2097785;28;1403;-52
2021/01/03 03:07:02;;;;;;;;;;;11.00;77.90;;;;;;2089794;28;748;-53
2021/01/03 03:08:21;;;;;;;;;;;11.00;77.90;;;;;;2095189;28;715;-52
2021/01/03 03:09:40;;;;;;;;;;;11.00;78.00;;;;;;2098514;28;716;-51
2021/01/03 03:11:00;;;;;;;;;;;11.00;77.90;;;;;;2089676;28;833;-53
2021/01/03 03:12:19;;;;;;;;;;;11.00;77.90;;;;;;2095083;28;736;-53
2021/01/03 03:13:38;;;;;;;;;;;11.00;77.80;;;;;;2098427;28;709;-53
2021/01/03 03:14:57;;;;;;;;;;;11.00;77.90;;;;;;2097716;28;720;-54
2021/01/03 03:16:17;;;;;;;;;;;11.00;77.90;;;;;;2098350;28;1363;-55
2021/01/03 03:17:36;;;;;;;;;;;11.00;78.60;;;;;;2089836;28;736;-54
2021/01/03 03:18:55;;;;;;;;;;;11.00;78.60;;;;;;2091766;28;2398;-52
2021/01/03 03:20:15;;;;;;;;;;;11.00;77.90;;;;;;2091783;28;1028;-52
2021/01/03 03:21:34;;;;;;;;;;;11.00;77.90;;;;;;2090349;28;1102;-52
2021/01/03 03:22:54;;;;;;;;;;;11.00;77.90;;;;;;2080463;28;932;-52
2021/01/03 03:24:13;;;;;;;;;;;11.00;77.80;;;;;;2086468;28;1997;-54
2021/01/03 03:25:32;;;;;;;;;;;11.00;77.90;;;;;;2080631;28;772;-54
2021/01/03 03:26:55;;;;;;;;;;;11.00;77.90;;;;;;2081485;28;792;-53
2021/01/03 03:28:15;;;;;;;;;;;11.00;77.90;;;;;;2081417;28;729;-54
2021/01/03 03:29:35;;;;;;;;;;;11.00;78.50;;;;;;2075775;28;783;-55
2021/01/03 03:30:54;;;;;;;;;;;11.00;78.60;;;;;;2078818;28;718;-52
2021/01/03 03:32:13;;;;;;;;;;;11.00;78.70;;;;;;2082381;28;750;-53
2021/01/03 03:33:32;;;;;;;;;;;11.00;77.90;;;;;;2081975;28;736;-51
2021/01/03 03:34:52;;;;;;;;;;;11.00;77.90;;;;;;2080942;28;729;-53
2021/01/03 03:36:11;;;;;;;;;;;11.00;77.80;;;;;;2089889;28;1439;-52
2021/01/03 03:37:30;;;;;;;;;;;10.90;77.70;;;;;;2085052;28;776;-53
2021/01/03 03:38:50;;;;;;;;;;;10.90;77.80;;;;;;2081662;28;798;-50
2021/01/03 03:40:09;;;;;;;;;;;11.00;77.90;;;;;;2081777;28;744;-52
2021/01/03 03:41:28;;;;;;;;;;;11.00;77.80;;;;;;2081249;28;732;-50
2021/01/03 03:42:47;;;;;;;;;;;11.00;77.80;;;;;;2081919;28;735;-54
2021/01/03 03:44:06;;;;;;;;;;;11.00;78.00;;;;;;2073364;28;738;-52
2021/01/03 03:45:26;;;;;;;;;;;11.00;78.00;;;;;;2069504;28;733;-54
2021/01/03 03:46:52;;;;;;;;;;;10.90;77.80;;;;;;2078354;28;770;-52
2021/01/03 03:48:11;;;;;;;;;;;10.90;78.40;;;;;;2082034;28;724;-51
2021/01/03 03:49:30;;;;;;;;;;;11.00;77.80;;;;;;2089322;28;1057;-54
2021/01/03 03:50:49;;;;;;;;;;;10.90;77.80;;;;;;2085885;28;1143;-53
2021/01/03 03:52:08;;;;;;;;;;;10.90;77.80;;;;;;2092466;28;996;-54
2021/01/03 03:53:27;;;;;;;;;;;10.90;77.80;;;;;;2097348;28;729;-53
2021/01/03 03:54:47;;;;;;;;;;;10.90;77.80;;;;;;2097812;28;792;-57
2021/01/03 03:56:07;;;;;;;;;;;10.90;77.80;;;;;;2089462;28;1384;-55
2021/01/03 03:57:26;;;;;;;;;;;10.90;77.80;;;;;;2094947;28;751;-52
2021/01/03 03:58:45;;;;;;;;;;;10.90;78.50;;;;;;2086761;28;1260;-55
2021/01/03 04:00:09;;;;;;;;;;;10.90;77.80;;;;;;2094678;28;728;-54
2021/01/03 04:01:40;;;;;;;;;;;10.90;78.10;;;;;;2092194;28;752;-53
2021/01/03 04:02:59;;;;;;;;;;;10.90;77.70;;;;;;2090233;28;741;-53
2021/01/03 04:04:19;;;;;;;;;;;10.90;77.80;;;;;;2090071;28;1975;-54
2021/01/03 04:05:38;;;;;;;;;;;10.90;77.70;;;;;;2080244;28;777;-52
2021/01/03 04:06:57;;;;;;;;;;;10.90;77.80;;;;;;2086887;28;770;-55
2021/01/03 04:08:16;;;;;;;;;;;10.90;78.50;;;;;;2090179;28;786;-52
2021/01/03 04:09:36;;;;;;;;;;;10.90;77.80;;;;;;2089920;28;718;-54
2021/01/03 04:10:55;;;;;;;;;;;10.90;77.80;;;;;;2090036;28;942;-53
2021/01/03 04:12:14;;;;;;;;;;;10.90;77.80;;;;;;2090132;28;711;-55
2021/01/03 04:13:33;;;;;;;;;;;10.90;77.80;;;;;;2089769;28;734;-53
2021/01/03 04:14:52;;;;;;;;;;;10.90;78.50;;;;;;2080272;28;690;-52
2021/01/03 04:16:11;;;;;;;;;;;10.90;77.80;;;;;;2086478;28;1351;-51
2021/01/03 04:17:30;;;;;;;;;;;10.90;77.80;;;;;;2081248;28;801;-52
2021/01/03 04:18:49;;;;;;;;;;;10.90;77.80;;;;;;2086664;28;942;-53
2021/01/03 04:20:14;;;;;;;;;;;10.90;77.80;;;;;;2095833;28;1154;-51
2021/01/03 04:21:34;;;;;;;;;;;10.90;77.80;;;;;;2084371;28;943;-52
2021/01/03 04:22:53;;;;;;;;;;;10.90;77.90;;;;;;2098350;28;735;-52
2021/01/03 04:24:12;;;;;;;;;;;10.90;77.90;;;;;;2087528;28;2049;-55
2021/01/03 04:25:31;;;;;;;;;;;10.90;77.70;;;;;;2081554;28;1308;-52
2021/01/03 04:26:54;;;;;;;;;;;10.90;77.80;;;;;;2089842;28;1074;-55
2021/01/03 04:28:13;;;;;;;;;;;10.90;77.90;;;;;;2090021;28;1043;-53
2021/01/03 04:29:32;;;;;;;;;;;10.90;77.70;;;;;;2090029;28;755;-55
2021/01/03 04:30:52;;;;;;;;;;;10.90;77.90;;;;;;2089626;28;2345;-58
2021/01/03 04:32:11;;;;;;;;;;;11.00;78.00;;;;;;2087895;28;1212;-53
2021/01/03 04:33:30;;;;;;;;;;;11.00;77.90;;;;;;2079225;28;1562;-55
2021/01/03 04:34:49;;;;;;;;;;;11.00;77.40;;;;;;2073035;28;1699;-53
2021/01/03 04:36:11;;;;;;;;;;;11.10;77.10;;;;;;2088738;28;1527;-53
2021/01/03 04:37:30;;;;;;;;;;;11.20;76.70;;;;;;2080883;28;1090;-52
2021/01/03 04:38:49;;;;;;;;;;;11.20;76.20;;;;;;2083464;28;1099;-54
2021/01/03 04:40:19;;;;;;;;;;;11.30;75.60;;;;;;2092704;28;1400;-53
2021/01/03 04:41:39;;;;;;;;;;;11.40;76.10;;;;;;2082543;28;1459;-54
2021/01/03 04:43:00;;;;;;;;;;;11.40;74.50;;;;;;2100153;28;1154;-52
2021/01/03 04:44:21;;;;;;;;;;;11.50;74.10;;;;;;2098414;28;1914;-53
2021/01/03 04:45:40;;;;;;;;;;;11.50;73.50;;;;;;2081762;28;1407;-54
2021/01/03 04:47:18;;;;;;;;;;;11.60;73.00;;;;;;2099748;28;1296;-56
2021/01/03 04:48:37;;;;;;;;;;;11.60;72.50;;;;;;2091341;28;1252;-54
2021/01/03 04:50:15;;;;;;;;;;;11.70;71.90;;;;;;2077735;28;1344;-54
2021/01/03 04:51:36;;;;;;;;;;;11.80;71.50;;;;;;2093469;28;1217;-53
2021/01/03 04:53:30;;;;;;;;;;;11.90;70.90;;;;;;2086419;28;854;-53
2021/01/03 04:54:50;;;;;;;;;;;11.90;71.20;;;;;;2056928;28;1594;-54
2021/01/03 04:56:21;;;;;;;;;;;12.00;69.80;;;;;;2050811;28;1409;-54
2021/01/03 04:57:42;;;;;;;;;;;12.10;69.30;;;;;;2091543;28;1053;-56
2021/01/03 04:59:05;;;;;;;;;;;12.10;68.70;;;;;;2085876;28;1410;-54
2021/01/03 05:00:26;;;;;;;;;;;12.20;68.30;;;;;;2080049;28;1187;-53
2021/01/03 05:01:48;;;;;;;;;;;12.30;67.80;;;;;;2094538;28;1186;-54
2021/01/03 05:03:07;;;;;;;;;;;12.40;67.30;;;;;;2094101;28;1084;-54
2021/01/03 05:04:45;;;;;;;;;;;12.40;66.90;;;;;;2089002;28;1902;-54
2021/01/03 05:06:05;;;;;;;;;;;12.40;66.50;;;;;;2091450;28;1500;-55
2021/01/03 05:07:28;;;;;;;;;;;12.50;66.30;;;;;;2096882;28;1044;-54
2021/01/03 05:08:47;;;;;;;;;;;12.50;66.00;;;;;;2080083;28;1375;-54
2021/01/03 05:10:22;;;;;;;;;;;12.50;65.90;;;;;;2100450;28;1339;-53
2021/01/03 05:12:01;;;;;;;;;;;12.50;66.00;;;;;;2093574;28;1326;-55
2021/01/03 05:13:22;;;;;;;;;;;12.50;66.10;;;;;;2085609;28;1428;-53
2021/01/03 05:15:01;;;;;;;;;;;12.50;66.10;;;;;;2076378;28;1229;-54
2021/01/03 05:16:21;;;;;;;;;;;12.40;66.20;;;;;;2103126;28;1408;-57
2021/01/03 05:17:40;;;;;;;;;;;12.40;66.40;;;;;;2090579;28;1375;-54
2021/01/03 05:18:59;;;;;;;;;;;12.40;66.60;;;;;;2090894;28;927;-56
2021/01/03 05:20:18;;;;;;;;;;;12.40;66.70;;;;;;2091663;28;1217;-54
2021/01/03 05:21:48;;;;;;;;;;;12.40;66.90;;;;;;2093277;28;1309;-55
2021/01/03 05:23:14;;;;;;;;;;;12.40;67.10;;;;;;2082133;28;1372;-53
2021/01/03 05:24:43;;;;;;;;;;;12.40;67.90;;;;;;2087271;28;1914;-51
2021/01/03 05:26:03;;;;;;;;;;;12.40;67.30;;;;;;2091811;28;1509;-54
2021/01/03 05:27:23;;;;;;;;;;;12.30;67.40;;;;;;2086326;28;1293;-53
2021/01/03 05:28:42;;;;;;;;;;;12.30;67.50;;;;;;2092337;28;1283;-53
2021/01/03 05:30:11;;;;;;;;;;;12.30;67.70;;;;;;2087242;28;1316;-56
2021/01/03 05:31:30;;;;;;;;;;;12.30;67.90;;;;;;2095483;28;1536;-51
2021/01/03 05:32:49;;;;;;;;;;;12.30;68.10;;;;;;2090691;28;1376;-53
2021/01/03 05:34:09;;;;;;;;;;;12.20;68.10;;;;;;2089975;28;1282;-53
2021/01/03 05:35:28;;;;;;;;;;;12.20;68.30;;;;;;2081660;28;1309;-52
2021/01/03 05:36:50;;;;;;;;;;;12.20;68.50;;;;;;2086270;28;1324;-56
2021/01/03 05:38:11;;;;;;;;;;;12.20;68.60;;;;;;2088436;28;1173;-52
2021/01/03 05:39:30;;;;;;;;;;;12.20;68.80;;;;;;2087475;28;1334;-52
2021/01/03 05:41:09;;;;;;;;;;;12.10;69.60;;;;;;2092576;28;1201;-55
2021/01/03 05:42:32;;;;;;;;;;;12.10;69.10;;;;;;2083138;28;1172;-53
2021/01/03 05:43:55;;;;;;;;;;;12.10;69.30;;;;;;2090957;28;1385;-54
2021/01/03 05:45:26;;;;;;;;;;;12.10;69.50;;;;;;2085058;28;1466;-52
2021/01/03 05:46:46;;;;;;;;;;;12.10;70.40;;;;;;2089466;28;856;-55
2021/01/03 05:48:05;;;;;;;;;;;12.10;69.70;;;;;;2073294;28;1302;-53
2021/01/03 05:49:25;;;;;;;;;;;12.00;69.80;;;;;;2075511;28;1298;-55
2021/01/03 05:50:44;;;;;;;;;;;12.00;70.70;;;;;;2078133;28;1278;-53
2021/01/03 05:52:03;;;;;;;;;;;12.00;70.20;;;;;;2083943;28;1106;-57
2021/01/03 05:53:24;;;;;;;;;;;12.00;70.30;;;;;;2075361;28;1294;-57
2021/01/03 05:54:43;;;;;;;;;;;12.00;70.40;;;;;;2075364;28;1198;-54
2021/01/03 05:56:04;;;;;;;;;;;12.00;70.60;;;;;;2090890;28;1498;-53
2021/01/03 05:57:27;;;;;;;;;;;12.00;70.60;;;;;;2098785;28;1338;-53
2021/01/03 05:58:46;;;;;;;;;;;11.90;70.70;;;;;;2079744;28;1441;-51
2021/01/03 06:00:21;;;;;;;;;;;12.00;71.00;;;;;;2080115;28;1337;-57
2021/01/03 06:01:41;;;;;;;;;;;11.90;71.00;;;;;;2078570;28;1362;-51
2021/01/03 06:03:11;;;;;;;;;;;11.90;71.10;;;;;;2087594;28;1039;-51
2021/01/03 06:04:30;;;;;;;;;;;11.90;71.20;;;;;;2092018;28;1898;-53
2021/01/03 06:05:50;;;;;;;;;;;11.90;71.30;;;;;;2100581;28;1538;-53
2021/01/03 06:07:25;;;;;;;;;;;11.90;72.10;;;;;;2091866;28;1137;-54
2021/01/03 06:08:45;;;;;;;;;;;11.90;72.40;;;;;;2079923;28;1223;-53
2021/01/03 06:10:27;;;;;;;;;;;11.90;71.60;;;;;;2090362;28;1193;-55
2021/01/03 06:12:12;;;;;;;;;;;11.80;71.60;;;;;;2086764;28;1358;-57
2021/01/03 06:13:31;;;;;;;;;;;11.80;71.80;;;;;;2072276;28;1167;-54
2021/01/03 06:14:51;;;;;;;;;;;11.80;71.90;;;;;;2079294;28;1435;-54
2021/01/03 06:16:10;;;;;;;;;;;11.80;72.00;;;;;;2076440;28;1395;-54
2021/01/03 06:17:32;;;;;;;;;;;11.80;72.00;;;;;;2089514;28;1347;-56
2021/01/03 06:18:52;;;;;;;;;;;11.80;72.20;;;;;;2082697;28;1511;-52
2021/01/03 06:20:23;;;;;;;;;;;11.80;73.00;;;;;;2100722;28;1161;-53
2021/01/03 06:21:42;;;;;;;;;;;11.80;72.30;;;;;;2083402;28;1389;-54
2021/01/03 06:23:12;;;;;;;;;;;11.80;73.10;;;;;;2084300;28;1317;-55
2021/01/03 06:24:31;;;;;;;;;;;11.70;72.30;;;;;;2090346;28;2005;-53
2021/01/03 06:25:57;;;;;;;;;;;11.70;72.50;;;;;;2082042;28;1394;-53
2021/01/03 06:27:19;;;;;;;;;;;11.70;72.70;;;;;;2080644;28;1298;-52
2021/01/03 06:28:48;;;;;;;;;;;11.70;72.70;;;;;;2077165;28;1269;-54
2021/01/03 06:30:08;;;;;;;;;;;11.70;72.70;;;;;;2086631;28;1379;-54
2021/01/03 06:31:33;;;;;;;;;;;11.70;72.80;;;;;;2088402;28;1423;-52
2021/01/03 06:32:52;;;;;;;;;;;11.70;72.90;;;;;;2094906;28;1412;-52
2021/01/03 06:34:13;;;;;;;;;;;11.70;72.90;;;;;;2093108;28;1194;-51
2021/01/03 06:35:33;;;;;;;;;;;11.70;73.70;;;;;;2084188;28;1352;-54
2021/01/03 06:36:57;;;;;;;;;;;11.70;73.00;;;;;;2085551;28;1327;-52
2021/01/03 06:38:25;;;;;;;;;;;11.70;73.10;;;;;;2093879;28;1237;-52
2021/01/03 06:39:47;;;;;;;;;;;11.60;73.00;;;;;;2088675;28;1316;-53
2021/01/03 06:41:14;;;;;;;;;;;11.60;73.00;;;;;;2089662;28;1162;-57
2021/01/03 06:42:42;;;;;;;;;;;11.60;73.20;;;;;;2096627;28;1319;-56
2021/01/03 06:44:01;;;;;;;;;;;11.60;73.30;;;;;;2094667;28;1286;-53
2021/01/03 06:45:33;;;;;;;;;;;11.60;73.30;;;;;;2096339;28;870;-54
2021/01/03 06:47:04;;;;;;;;;;;11.60;73.30;;;;;;2093762;28;1169;-53
2021/01/03 06:48:33;;;;;;;;;;;11.60;73.40;;;;;;2090705;28;1115;-51
2021/01/03 06:49:55;;;;;;;;;;;11.60;73.40;;;;;;2090194;28;1242;-51
2021/01/03 06:51:20;;;;;;;;;;;11.60;73.60;;;;;;2085411;28;1117;-52
2021/01/03 06:52:40;;;;;;;;;;;11.60;73.60;;;;;;2091746;28;1282;-50
2021/01/03 06:54:09;;;;;;;;;;;11.60;73.60;;;;;;2091842;28;1041;-52
2021/01/03 06:55:46;;;;;;;;;;;11.60;74.30;;;;;;2084731;28;1276;-52
2021/01/03 06:57:19;;;;;;;;;;;11.60;73.70;;;;;;2091866;28;1334;-51
2021/01/03 06:58:50;;;;;;;;;;;11.60;73.90;;;;;;2076514;28;1348;-52
2021/01/03 07:00:13;;;;;;;;;;;11.60;74.30;;;;;;2088167;28;1403;-52
2021/01/03 07:01:33;;;;;;;;;;;11.60;74.30;;;;;;2085119;28;1193;-52
2021/01/03 07:02:52;;;;;;;;;;;11.60;74.50;;;;;;2091758;28;1312;-53
2021/01/03 07:04:22;;;;;;;;;;;11.60;74.50;;;;;;2095048;28;1349;-52
2021/01/03 07:05:51;;;;;;;;;;;11.70;74.40;;;;;;2087671;28;1293;-51
2021/01/03 07:07:11;;;;;;;;;;;11.70;74.10;;;;;;2095201;28;1392;-53
2021/01/03 07:08:35;;;;;;;;;;;11.80;73.90;;;;;;2086491;28;1323;-52
2021/01/03 07:09:58;;;;;;;;;;;11.80;73.20;;;;;;2088562;28;1366;-52
2021/01/03 07:11:36;;;;;;;;;;;11.90;72.90;;;;;;2091354;28;1100;-51
2021/01/03 07:12:56;;;;;;;;;;;11.90;72.30;;;;;;2086674;28;1207;-54
2021/01/03 07:14:22;;;;;;;;;;;12.00;71.90;;;;;;2087867;28;1222;-54
2021/01/03 07:15:41;;;;;;;;;;;12.10;71.60;;;;;;2090727;28;1244;-53
2021/01/03 07:17:15;;;;;;;;;;;12.20;71.50;;;;;;2105128;28;1346;-52
2021/01/03 07:18:40;;;;;;;;;;;12.30;70.70;;;;;;2085869;28;1324;-52
2021/01/03 07:20:02;;;;;;;;;;;12.40;69.50;;;;;;2080542;28;1196;-53
2021/01/03 07:21:36;;;;;;;;;;;12.40;68.30;;;;;;2071344;28;1198;-51
2021/01/03 07:23:04;;;;;;;;;;;12.40;68.00;;;;;;2092055;28;1311;-51
2021/01/03 07:24:32;;;;;;;;;;;12.50;67.70;;;;;;2093754;28;1933;-52
2021/01/03 07:25:52;;;;;;;;;;;12.60;67.20;;;;;;2097226;28;1524;-51
2021/01/03 07:27:21;;;;;;;;;;;12.60;66.70;;;;;;2094363;28;1170;-50
2021/01/03 07:28:40;;;;;;;;;;;12.70;66.10;;;;;;2078168;28;1238;-51
2021/01/03 07:30:02;;;;;;;;;;;12.70;65.70;;;;;;2079954;28;1177;-52
2021/01/03 07:31:30;;;;;;;;;;;12.80;65.30;;;;;;2077712;28;1155;-52
2021/01/03 07:32:59;;;;;;;;;;;12.90;65.10;;;;;;2097007;28;1467;-53
2021/01/03 07:34:19;;;;;;;;;;;12.90;64.50;;;;;;2089646;28;1362;-53
2021/01/03 07:35:39;;;;;;;;;;;13.00;64.20;;;;;;2079078;28;1373;-53
2021/01/03 07:36:58;;;;;;;;;;;13.10;64.70;;;;;;2092049;28;1221;-52
2021/01/03 07:38:24;;;;;;;;;;;13.10;64.40;;;;;;2095113;28;1375;-53
2021/01/03 07:39:56;;;;;;;;;;;13.20;63.20;;;;;;2098117;28;1371;-52
2021/01/03 07:41:15;;;;;;;;;;;13.30;62.90;;;;;;2080500;28;1411;-52
2021/01/03 07:42:35;;;;;;;;;;;13.30;62.40;;;;;;2078617;28;1243;-52
2021/01/03 07:44:05;;;;;;;;;;;13.40;62.20;;;;;;2092866;28;1270;-52
2021/01/03 07:45:27;;;;;;;;;;;13.50;62.00;;;;;;2092927;28;1103;-52
2021/01/03 07:46:51;;;;;;;;;;;13.50;61.70;;;;;;2091127;28;1365;-53
2021/01/03 07:48:28;;;;;;;;;;;13.60;61.30;;;;;;2091698;28;1167;-52
2021/01/03 07:49:48;;;;;;;;;;;13.70;61.80;;;;;;2090869;28;1359;-52
2021/01/03 07:51:08;;;;;;;;;;;13.70;60.70;;;;;;2082743;28;1228;-54
2021/01/03 07:52:27;;;;;;;;;;;13.80;60.50;;;;;;2083810;28;1076;-52
2021/01/03 07:53:50;;;;;;;;;;;13.80;60.40;;;;;;2072479;28;1088;-52
2021/01/03 07:55:23;;;;;;;;;;;13.80;60.20;;;;;;2083794;28;1316;-56
2021/01/03 07:56:42;;;;;;;;;;;13.90;60.10;;;;;;2077456;28;1213;-52
2021/01/03 07:58:05;;;;;;;;;;;13.90;60.00;;;;;;2091518;28;1127;-51
2021/01/03 07:59:24;;;;;;;;;;;13.90;60.10;;;;;;2095785;28;981;-51
2021/01/03 08:00:45;;;;;;;;;;;13.80;60.10;;;;;;2088951;28;1108;-54
2021/01/03 08:02:04;;;;;;;;;;;13.80;60.20;;;;;;2078301;28;1080;-53
2021/01/03 08:03:23;;;;;;;;;;;13.80;60.40;;;;;;2084740;28;1230;-52
2021/01/03 08:04:43;;;;;;;;;;;13.80;60.90;;;;;;2085537;28;1902;-51
2021/01/03 08:06:06;;;;;;;;;;;13.80;61.30;;;;;;2093462;28;1430;-54
2021/01/03 08:07:25;;;;;;;;;;;13.80;61.10;;;;;;2076706;28;1039;-51